createdAt,value
2018-09-03T00:01:55.187Z,8.70
2018-09-03T00:04:26.867Z,9.30
2018-09-03T00:06:58.159Z,10.58
2018-09-03T00:09:33.427Z,9.57
2018-09-03T00:12:04.871Z,9.17
2018-09-03T00:14:36.363Z,9.20
2018-09-03T00:17:08.326Z,8.30
2018-09-03T00:19:39.741Z,8.60
2018-09-03T00:22:11.198Z,7.80
2018-09-03T00:24:42.779Z,7.80
2018-09-03T00:27:14.079Z,7.07
2018-09-03T00:29:45.357Z,6.97
2018-09-03T00:32:21.789Z,8.08
2018-09-03T00:34:58.395Z,6.67
2018-09-03T00:37:34.775Z,17.10
2018-09-03T00:40:11.388Z,5.87
2018-09-03T00:42:47.529Z,7.33
2018-09-03T00:45:23.823Z,8.37
2018-09-03T00:47:55.366Z,6.73
2018-09-03T00:50:26.506Z,6.83
2018-09-03T00:52:58.160Z,7.73
2018-09-03T00:55:29.688Z,6.80
2018-09-03T00:58:01.121Z,5.70
2018-09-03T01:00:32.423Z,5.43
2018-09-03T01:03:03.857Z,5.33
2018-09-03T01:05:35.279Z,6.33
2018-09-03T01:08:06.822Z,6.73
2018-09-03T01:10:37.968Z,5.92
2018-09-03T01:13:09.168Z,6.57
2018-09-03T01:15:40.586Z,7.60
2018-09-03T01:18:11.841Z,6.83
2018-09-03T01:20:43.367Z,6.93
2018-09-03T01:23:14.894Z,6.97
2018-09-03T01:25:46.648Z,7.67
2018-09-03T01:28:18.186Z,7.63
2018-09-03T01:30:49.578Z,7.07
2018-09-03T01:33:20.973Z,7.80
2018-09-03T01:35:52.592Z,6.33
2018-09-03T01:38:24.166Z,6.63
2018-09-03T01:40:56.466Z,7.70
2018-09-03T01:43:28.006Z,8.23
2018-09-03T01:45:59.298Z,9.47
2018-09-03T01:48:30.671Z,7.95
2018-09-03T01:51:02.284Z,7.57
2018-09-03T01:53:33.710Z,8.07
2018-09-03T01:56:05.448Z,7.13
2018-09-03T01:58:36.936Z,7.17
2018-09-03T02:01:08.334Z,7.40
2018-09-03T02:03:40.128Z,8.30
2018-09-03T02:06:13.054Z,9.30
2018-09-03T02:08:44.676Z,8.67
2018-09-03T02:11:16.336Z,8.43
2018-09-03T02:13:48.211Z,9.03
2018-09-03T02:16:19.441Z,9.30
2018-09-03T02:18:50.859Z,9.18
2018-09-03T02:21:22.081Z,9.57
2018-09-03T02:23:53.532Z,9.53
2018-09-03T02:26:25.189Z,9.30
2018-09-03T02:28:56.548Z,10.37
2018-09-03T02:31:28.005Z,9.87
2018-09-03T02:33:59.247Z,10.03
2018-09-03T02:36:30.835Z,12.73
2018-09-03T02:39:02.361Z,13.83
2018-09-03T02:41:33.911Z,14.13
2018-09-03T02:44:05.342Z,16.60
2018-09-03T02:46:40.256Z,15.43
2018-09-03T02:49:11.331Z,15.23
2018-09-03T02:51:42.557Z,14.87
2018-09-03T02:54:14.143Z,14.13
2018-09-03T02:56:45.521Z,13.53
2018-09-03T02:59:17.034Z,13.07
2018-09-03T03:01:48.635Z,11.83
2018-09-03T03:04:20.230Z,11.87
2018-09-03T03:06:51.736Z,11.13
2018-09-03T03:09:23.271Z,10.27
2018-09-03T03:11:54.997Z,11.03
2018-09-03T03:14:26.490Z,10.33
2018-09-03T03:16:58.092Z,9.20
2018-09-03T03:19:29.539Z,9.17
2018-09-03T03:22:00.861Z,8.43
2018-09-03T03:24:32.207Z,8.17
2018-09-03T03:27:03.804Z,8.90
2018-09-03T03:29:35.348Z,9.03
2018-09-03T03:32:07.171Z,9.80
2018-09-03T03:34:38.875Z,7.97
2018-09-03T03:37:10.300Z,8.30
2018-09-03T03:39:41.766Z,8.87
2018-09-03T03:42:13.187Z,9.37
2018-09-03T03:44:44.470Z,11.50
2018-09-03T03:47:15.978Z,11.10
2018-09-03T03:49:47.306Z,9.10
2018-09-03T03:52:18.707Z,9.90
2018-09-03T03:54:50.252Z,9.63
2018-09-03T03:57:21.777Z,9.87
2018-09-03T03:59:53.355Z,10.97
2018-09-03T04:02:24.900Z,10.97
2018-09-03T04:04:56.182Z,13.63
2018-09-03T04:07:27.963Z,11.13
2018-09-03T04:09:59.367Z,11.53
2018-09-03T04:12:30.644Z,11.43
2018-09-03T04:15:02.174Z,13.17
2018-09-03T04:17:33.620Z,11.77
2018-09-03T04:20:05.443Z,15.43
2018-09-03T04:22:36.737Z,14.10
2018-09-03T04:25:08.100Z,12.20
2018-09-03T04:27:39.594Z,11.90
2018-09-03T04:30:11.137Z,14.00
2018-09-03T04:32:42.325Z,13.60
2018-09-03T04:35:13.710Z,17.90
2018-09-03T04:37:45.433Z,12.67
2018-09-03T04:40:16.962Z,12.40
2018-09-03T04:42:48.319Z,20.70
2018-09-03T04:45:19.789Z,14.80
2018-09-03T04:47:51.181Z,12.30
2018-09-03T04:50:23.483Z,11.87
2018-09-03T04:52:55.056Z,11.33
2018-09-03T04:55:26.524Z,12.90
2018-09-03T04:57:58.408Z,13.17
2018-09-03T05:00:29.879Z,15.37
2018-09-03T05:03:01.350Z,11.50
2018-09-03T05:05:32.697Z,10.77
2018-09-03T05:08:04.171Z,10.43
2018-09-03T05:10:35.609Z,10.30
2018-09-03T05:13:07.022Z,10.60
2018-09-03T05:15:38.506Z,11.30
2018-09-03T05:18:09.988Z,9.30
2018-09-03T05:20:41.661Z,8.20
2018-09-03T05:23:13.176Z,10.40
2018-09-03T05:25:44.482Z,9.20
2018-09-03T05:28:15.938Z,15.70
2018-09-03T05:30:47.603Z,10.50
2018-09-03T05:33:18.806Z,8.57
2018-09-03T05:35:50.282Z,7.67
2018-09-03T05:38:21.725Z,10.00
2018-09-03T05:40:53.170Z,8.27
2018-09-03T05:43:24.702Z,7.60
2018-09-03T05:45:55.954Z,8.10
2018-09-03T05:48:27.406Z,8.07
2018-09-03T05:50:58.671Z,8.10
2018-09-03T05:53:30.280Z,7.80
2018-09-03T05:56:01.839Z,7.97
2018-09-03T05:58:33.279Z,7.97
2018-09-03T06:01:05.337Z,7.87
2018-09-03T06:03:36.844Z,7.83
2018-09-03T06:06:08.294Z,8.93
2018-09-03T06:08:39.885Z,15.53
2018-09-03T06:11:11.589Z,7.70
2018-09-03T06:13:42.945Z,7.13
2018-09-03T06:16:14.357Z,14.43
2018-09-03T06:18:45.771Z,10.00
2018-09-03T06:21:17.395Z,6.93
2018-09-03T06:23:48.786Z,6.87
2018-09-03T06:26:20.194Z,6.90
2018-09-03T06:28:51.573Z,7.63
2018-09-03T06:31:22.846Z,7.00
2018-09-03T06:33:54.380Z,6.23
2018-09-03T06:36:25.855Z,6.57
2018-09-03T06:38:57.377Z,5.70
2018-09-03T06:41:28.695Z,5.50
2018-09-03T06:44:00.108Z,5.73
2018-09-03T06:46:31.433Z,6.33
2018-09-03T06:49:02.747Z,5.35
2018-09-03T06:51:34.428Z,4.93
2018-09-03T06:54:05.915Z,4.92
2018-09-03T06:56:37.380Z,4.92
2018-09-03T06:59:08.970Z,4.95
2018-09-03T07:01:40.434Z,5.35
2018-09-03T07:04:11.970Z,5.25
2018-09-03T07:06:43.425Z,5.22
2018-09-03T07:09:15.238Z,5.10
2018-09-03T07:11:46.407Z,8.00
2018-09-03T07:14:17.949Z,4.45
2018-09-03T07:16:49.409Z,5.35
2018-09-03T07:19:20.853Z,5.17
2018-09-03T07:21:52.381Z,5.92
2018-09-03T07:24:23.694Z,4.17
2018-09-03T07:26:55.127Z,4.55
2018-09-03T07:29:26.518Z,5.12
2018-09-03T07:31:57.985Z,5.22
2018-09-03T07:34:29.141Z,5.37
2018-09-03T07:37:00.538Z,4.60
2018-09-03T07:39:32.020Z,4.25
2018-09-03T07:42:03.551Z,4.35
2018-09-03T07:44:35.203Z,7.30
2018-09-03T07:47:06.740Z,4.90
2018-09-03T07:49:38.212Z,6.45
2018-09-03T07:52:09.860Z,3.50
2018-09-03T07:54:41.469Z,6.97
2018-09-03T07:57:12.858Z,4.20
2018-09-03T07:59:44.228Z,4.17
2018-09-03T08:02:16.443Z,4.25
2018-09-03T08:20:13.902Z,4.20
2018-09-03T08:22:44.732Z,3.98
2018-09-03T08:25:15.549Z,3.98
2018-09-03T08:27:46.300Z,4.15
2018-09-03T08:30:17.217Z,3.95
2018-09-03T08:32:47.953Z,3.90
2018-09-03T08:35:18.740Z,4.58
2018-09-03T08:37:49.555Z,8.60
2018-09-03T08:40:20.427Z,4.78
2018-09-03T08:42:51.281Z,4.08
2018-09-03T08:45:22.102Z,5.00
2018-09-03T08:47:52.877Z,4.35
2018-09-03T08:50:23.764Z,5.12
2018-09-03T08:52:54.426Z,5.42
2018-09-03T08:55:25.284Z,4.75
2018-09-03T08:57:56.181Z,4.62
2018-09-03T09:00:27.009Z,6.67
2018-09-03T09:02:57.883Z,5.53
2018-09-03T09:05:28.754Z,4.55
2018-09-03T09:07:59.702Z,5.55
2018-09-03T09:10:30.524Z,5.40
2018-09-03T09:13:01.329Z,5.53
2018-09-03T09:15:32.173Z,5.62
2018-09-03T09:18:02.980Z,5.20
2018-09-03T09:20:33.816Z,5.25
2018-09-03T09:23:04.702Z,5.10
2018-09-03T09:25:35.502Z,6.12
2018-09-03T09:28:06.450Z,5.90
2018-09-03T09:30:37.310Z,5.37
2018-09-03T09:33:08.143Z,5.92
2018-09-03T09:35:39.012Z,5.50
2018-09-03T09:38:09.963Z,5.62
2018-09-03T09:40:40.794Z,5.50
2018-09-03T09:43:11.715Z,5.62
2018-09-03T09:45:42.590Z,9.90
2018-09-03T09:48:13.431Z,6.70
2018-09-03T09:50:44.247Z,6.55
2018-09-03T09:53:15.086Z,16.95
2018-09-03T09:55:45.916Z,11.78
2018-09-03T09:58:16.679Z,6.70
2018-09-03T10:00:52.607Z,6.85
2018-09-03T10:03:23.447Z,7.83
2018-09-03T10:05:54.276Z,7.85
2018-09-03T10:08:25.051Z,6.85
2018-09-03T10:10:55.904Z,6.60
2018-09-03T10:13:26.748Z,7.00
2018-09-03T10:15:57.567Z,6.95
2018-09-03T10:18:28.394Z,6.83
2018-09-03T10:20:59.366Z,6.97
2018-09-03T10:23:30.111Z,8.45
2018-09-03T10:26:00.880Z,8.05
2018-09-03T10:28:31.801Z,7.85
2018-09-03T10:31:02.660Z,8.10
2018-09-03T10:33:33.383Z,8.05
2018-09-03T10:36:04.340Z,8.23
2018-09-03T10:38:35.307Z,7.35
2018-09-03T10:41:06.312Z,10.48
2018-09-03T10:43:37.126Z,7.65
2018-09-03T10:46:08.063Z,8.73
2018-09-03T10:48:38.971Z,8.88
2018-09-03T10:51:09.828Z,10.00
2018-09-03T10:53:40.632Z,9.10
2018-09-03T10:56:11.861Z,11.22
2018-09-03T10:58:42.618Z,10.00
2018-09-03T11:01:14.118Z,11.08
2018-09-03T11:03:44.966Z,14.55
2018-09-03T11:06:15.913Z,9.35
2018-09-03T11:08:46.706Z,9.33
2018-09-03T11:11:17.479Z,10.05
2018-09-03T11:13:48.330Z,11.65
2018-09-03T11:16:19.193Z,9.48
2018-09-03T11:18:50.076Z,9.80
2018-09-03T11:21:21.036Z,10.30
2018-09-03T11:23:51.782Z,9.85
2018-09-03T11:26:22.579Z,9.85
2018-09-03T11:28:53.438Z,12.63
2018-09-03T11:31:24.391Z,11.95
2018-09-03T11:33:55.400Z,11.08
2018-09-03T11:36:26.940Z,12.23
2018-09-03T11:38:57.864Z,10.55
2018-09-03T11:41:28.760Z,13.93
2018-09-03T11:43:59.528Z,14.78
2018-09-03T11:46:30.282Z,17.32
2018-09-03T11:49:01.058Z,13.50
2018-09-03T11:51:31.900Z,14.50
2018-09-03T11:54:02.738Z,14.30
2018-09-03T11:56:33.578Z,12.23
2018-09-03T11:59:04.509Z,13.85
2018-09-03T12:01:35.372Z,14.30
2018-09-03T12:04:06.252Z,13.15
2018-09-03T12:06:37.161Z,12.23
2018-09-03T12:09:10.378Z,11.63
2018-09-03T12:11:41.458Z,11.55
2018-09-03T12:14:21.064Z,11.12
2018-09-03T12:16:53.090Z,11.38
2018-09-03T12:19:23.886Z,11.60
2018-09-03T12:21:55.592Z,11.63
2018-09-03T12:24:26.360Z,11.03
2018-09-03T12:26:57.194Z,10.25
2018-09-03T12:29:28.055Z,11.03
2018-09-03T12:31:59.024Z,12.05
2018-09-03T12:34:29.901Z,12.25
2018-09-03T12:37:00.855Z,11.63
2018-09-03T12:39:31.682Z,11.15
2018-09-03T12:42:02.577Z,12.20
2018-09-03T12:44:33.417Z,12.05
2018-09-03T12:47:04.314Z,11.85
2018-09-03T12:49:35.319Z,13.55
2018-09-03T12:52:06.242Z,14.68
2018-09-03T12:54:37.091Z,12.98
2018-09-03T12:57:08.023Z,13.98
2018-09-03T12:59:39.814Z,16.30
2018-09-03T13:02:11.255Z,16.45
2018-09-03T13:04:42.037Z,15.08
2018-09-03T13:07:13.886Z,15.53
2018-09-03T13:09:44.777Z,18.70
2018-09-03T13:12:15.663Z,19.32
2018-09-03T13:14:46.415Z,26.93
2018-09-03T13:17:17.400Z,28.70
2018-09-03T13:19:48.309Z,26.90
2018-09-03T13:22:19.179Z,19.95
2018-09-03T13:24:50.075Z,20.05
2018-09-03T13:27:21.076Z,57.48
2018-09-03T13:29:52.023Z,27.35
2018-09-03T13:32:22.905Z,31.97
2018-09-03T13:34:54.019Z,27.42
2018-09-03T13:37:24.865Z,34.27
2018-09-03T13:39:55.824Z,39.00
2018-09-03T13:42:26.753Z,34.00
2018-09-03T13:44:57.528Z,21.02
2018-09-03T13:47:28.356Z,16.15
2018-09-03T13:49:59.201Z,22.98
2018-09-03T13:52:30.055Z,27.65
2018-09-03T13:55:01.095Z,13.08
2018-09-03T13:57:31.844Z,10.75
2018-09-03T14:00:03.102Z,12.47
2018-09-03T14:02:33.887Z,14.07
2018-09-03T14:05:04.757Z,12.05
2018-09-03T14:07:35.608Z,12.30
2018-09-03T14:10:06.705Z,10.50
2018-09-03T14:12:37.594Z,11.40
2018-09-03T14:15:08.469Z,11.15
2018-09-03T14:17:39.400Z,10.00
2018-09-03T14:20:10.305Z,9.85
2018-09-03T14:22:41.199Z,11.70
2018-09-03T14:25:12.022Z,11.10
2018-09-03T14:27:42.983Z,9.38
2018-09-03T14:30:13.923Z,10.35
2018-09-03T14:32:44.863Z,9.98
2018-09-03T14:35:15.740Z,12.53
2018-09-03T14:37:46.619Z,10.15
2018-09-03T14:40:17.358Z,10.03
2018-09-03T14:42:48.396Z,9.70
2018-09-03T14:45:19.274Z,10.05
2018-09-03T14:47:50.096Z,9.40
2018-09-03T14:50:20.922Z,12.70
2018-09-03T14:52:51.747Z,16.93
2018-09-03T14:55:22.672Z,11.60
2018-09-03T14:57:53.507Z,9.63
2018-09-03T15:00:24.473Z,11.08
2018-09-03T15:02:55.334Z,10.60
2018-09-03T15:05:26.217Z,10.55
2018-09-03T15:07:57.211Z,12.80
2018-09-03T15:10:28.043Z,12.75
2018-09-03T15:12:58.989Z,11.33
2018-09-03T15:15:30.301Z,12.65
2018-09-03T15:18:01.148Z,15.68
2018-09-03T15:20:33.160Z,11.60
2018-09-03T15:23:04.016Z,10.78
2018-09-03T15:25:34.869Z,10.88
2018-09-03T15:28:05.794Z,10.70
2018-09-03T15:30:36.643Z,11.93
2018-09-03T15:33:07.601Z,12.35
2018-09-03T15:35:38.468Z,13.72
2018-09-03T15:38:09.937Z,11.65
2018-09-03T15:40:40.750Z,11.18
2018-09-03T15:43:11.668Z,11.22
2018-09-03T15:45:42.535Z,12.43
2018-09-03T15:48:13.961Z,13.10
2018-09-03T15:50:53.156Z,12.00
2018-09-03T15:53:24.950Z,12.28
2018-09-03T15:55:55.832Z,14.47
2018-09-03T15:58:26.711Z,14.00
2018-09-03T16:00:57.566Z,12.58
2018-09-03T16:03:28.401Z,12.58
2018-09-03T16:05:59.425Z,12.00
2018-09-03T16:08:30.301Z,11.68
2018-09-03T16:11:01.141Z,11.57
2018-09-03T16:13:32.006Z,11.45
2018-09-03T16:16:02.788Z,11.93
2018-09-03T16:18:33.716Z,10.43
2018-09-03T16:21:04.586Z,11.75
2018-09-03T16:23:36.167Z,10.13
2018-09-03T16:26:06.957Z,9.88
2018-09-03T16:28:37.892Z,10.08
2018-09-03T16:31:08.729Z,13.83
2018-09-03T16:33:39.805Z,11.38
2018-09-03T16:36:10.689Z,9.63
2018-09-03T16:38:41.572Z,9.55
2018-09-03T16:41:12.418Z,11.53
2018-09-03T16:43:43.290Z,8.60
2018-09-03T16:46:14.423Z,9.60
2018-09-03T16:48:45.336Z,9.00
2018-09-03T16:51:16.146Z,8.85
2018-09-03T16:53:47.045Z,10.20
2018-09-03T16:56:17.939Z,9.05
2018-09-03T16:58:49.005Z,8.25
2018-09-03T17:01:20.312Z,9.50
2018-09-03T17:03:51.161Z,9.78
2018-09-03T17:06:22.121Z,9.63
2018-09-03T17:08:52.945Z,12.82
2018-09-03T17:11:23.784Z,9.00
2018-09-03T17:13:54.641Z,9.48
2018-09-03T17:16:25.639Z,8.93
2018-09-03T17:18:56.451Z,10.15
2018-09-03T17:21:27.351Z,13.68
2018-09-03T17:23:58.268Z,16.50
2018-09-03T17:26:29.243Z,15.83
2018-09-03T17:29:00.121Z,14.33
2018-09-03T17:31:30.974Z,14.00
2018-09-03T17:34:02.360Z,15.40
2018-09-03T17:36:33.305Z,22.25
2018-09-03T17:39:05.176Z,14.18
2018-09-03T17:41:36.040Z,18.15
2018-09-03T17:44:06.994Z,10.63
2018-09-03T17:46:37.871Z,37.58
2018-09-03T17:49:08.672Z,31.57
2018-09-03T17:51:39.594Z,17.48
2018-09-03T17:54:10.506Z,10.70
2018-09-03T17:56:41.431Z,10.78
2018-09-03T17:59:12.315Z,10.80
2018-09-03T18:01:43.811Z,12.50
2018-09-03T18:04:14.804Z,10.93
2018-09-03T18:06:46.007Z,14.35
2018-09-03T18:09:16.917Z,11.30
2018-09-03T18:11:47.824Z,10.63
2018-09-03T18:14:19.736Z,11.03
2018-09-03T18:16:50.619Z,10.82
2018-09-03T18:19:21.530Z,11.88
2018-09-03T18:21:52.523Z,10.45
2018-09-03T18:24:23.675Z,9.73
2018-09-03T18:26:54.559Z,10.10
2018-09-03T18:29:25.497Z,11.88
2018-09-03T18:31:56.437Z,26.12
2018-09-03T18:34:27.398Z,24.92
2018-09-03T18:36:59.267Z,10.88
2018-09-03T18:39:30.251Z,10.23
2018-09-03T18:42:01.432Z,15.08
2018-09-03T18:44:32.494Z,10.78
2018-09-03T18:47:03.584Z,10.68
2018-09-03T18:49:34.671Z,10.55
2018-09-03T18:52:05.693Z,11.33
2018-09-03T18:54:38.303Z,14.50
2018-09-03T18:57:11.712Z,11.63
2018-09-03T18:59:43.579Z,12.93
2018-09-03T19:02:14.540Z,11.80
2018-09-03T19:04:45.726Z,14.28
2018-09-03T19:07:16.934Z,12.93
2018-09-03T19:09:48.104Z,12.45
2018-09-03T19:12:19.343Z,15.15
2018-09-03T19:14:50.382Z,11.65
2018-09-03T19:17:21.418Z,34.20
2018-09-03T19:19:52.444Z,24.15
2018-09-03T19:22:23.751Z,12.07
2018-09-03T19:24:54.848Z,14.98
2018-09-03T19:27:26.123Z,14.18
2018-09-03T19:29:57.192Z,13.80
2018-09-03T19:32:28.158Z,11.88
2018-09-03T19:34:59.156Z,12.55
2018-09-03T19:37:30.081Z,11.03
2018-09-03T19:40:01.012Z,11.78
2018-09-03T19:42:31.934Z,12.23
2018-09-03T19:45:02.922Z,10.63
2018-09-03T19:47:34.018Z,11.85
2018-09-03T19:50:05.132Z,12.23
2018-09-03T19:52:36.063Z,21.97
2018-09-03T19:55:07.136Z,11.12
2018-09-03T19:57:38.194Z,12.15
2018-09-03T20:00:09.279Z,13.28
2018-09-03T20:02:40.199Z,29.12
2018-09-03T20:05:11.189Z,12.23
2018-09-03T20:07:42.417Z,11.95
2018-09-03T20:10:13.346Z,11.15
2018-09-03T20:12:44.273Z,13.85
2018-09-03T20:15:19.162Z,17.00
2018-09-03T20:17:50.374Z,14.28
2018-09-03T20:20:21.324Z,15.85
2018-09-03T20:22:52.290Z,12.07
2018-09-03T20:25:23.274Z,30.90
2018-09-03T20:27:54.213Z,22.70
2018-09-03T20:30:25.115Z,14.78
2018-09-03T20:32:55.936Z,14.30
2018-09-03T20:35:26.892Z,21.80
2018-09-03T20:37:57.710Z,14.63
2018-09-03T20:40:28.707Z,14.38
2018-09-03T20:42:59.781Z,22.95
2018-09-03T20:45:30.574Z,21.17
2018-09-03T20:48:01.535Z,14.03
2018-09-03T20:50:32.511Z,13.03
2018-09-03T20:53:03.452Z,14.63
2018-09-03T20:55:34.654Z,13.50
2018-09-03T20:58:05.532Z,12.78
2018-09-03T21:00:36.427Z,12.10
2018-09-03T21:03:07.280Z,16.75
2018-09-03T21:05:38.197Z,12.93
2018-09-03T21:08:09.061Z,12.68
2018-09-03T21:10:39.947Z,13.88
2018-09-03T21:13:10.949Z,15.28
2018-09-03T21:15:41.788Z,15.85
2018-09-03T21:18:12.596Z,15.40
2018-09-03T21:20:43.495Z,16.45
2018-09-03T21:23:14.310Z,15.08
2018-09-03T21:25:45.180Z,15.00
2018-09-03T21:28:16.019Z,17.07
2018-09-03T21:30:47.065Z,17.15
2018-09-03T21:33:17.918Z,17.77
2018-09-03T21:35:48.901Z,54.80
2018-09-03T21:38:19.815Z,20.30
2018-09-03T21:40:50.844Z,22.15
2018-09-03T21:43:21.672Z,19.27
2018-09-03T21:45:52.634Z,17.70
2018-09-03T21:48:23.412Z,18.60
2018-09-03T21:50:54.673Z,18.37
2018-09-03T21:53:25.528Z,17.57
2018-09-03T21:55:56.283Z,19.40
2018-09-03T21:58:27.871Z,16.93
2018-09-03T22:00:58.837Z,17.10
2018-09-03T22:03:29.831Z,17.98
2018-09-03T22:06:00.969Z,19.05
2018-09-03T22:08:31.831Z,18.48
2018-09-03T22:11:03.146Z,19.15
2018-09-03T22:13:33.998Z,19.35
2018-09-03T22:16:04.985Z,81.47
2018-09-03T22:18:35.993Z,90.77
2018-09-03T22:21:07.044Z,21.57
2018-09-03T22:23:38.425Z,19.25
2018-09-03T22:26:09.419Z,18.42
2018-09-03T22:28:40.367Z,18.42
2018-09-03T22:31:12.008Z,19.23
2018-09-03T22:33:42.885Z,18.65
2018-09-03T22:36:13.768Z,18.95
2018-09-03T22:38:44.644Z,19.62
2018-09-03T22:41:16.610Z,18.15
2018-09-03T22:43:47.446Z,18.25
2018-09-03T22:46:18.257Z,16.82
2018-09-03T22:48:49.063Z,16.35
2018-09-03T22:51:19.876Z,22.70
2018-09-03T22:53:50.818Z,18.30
2018-09-03T22:56:21.657Z,15.58
2018-09-03T22:58:52.507Z,14.93
2018-09-03T23:01:23.373Z,14.65
2018-09-03T23:03:54.201Z,14.50
2018-09-03T23:06:25.168Z,13.88
2018-09-03T23:08:55.957Z,15.13
2018-09-03T23:11:26.936Z,16.60
2018-09-03T23:13:57.788Z,16.30
2018-09-03T23:16:28.592Z,22.03
2018-09-03T23:18:59.477Z,21.60
2018-09-03T23:21:30.371Z,22.95
2018-09-03T23:24:01.157Z,23.70
2018-09-03T23:26:32.095Z,22.70
2018-09-03T23:29:03.092Z,23.90
2018-09-03T23:31:33.919Z,24.43
2018-09-03T23:34:04.681Z,21.83
2018-09-03T23:36:35.540Z,21.33
2018-09-03T23:39:06.987Z,22.67
2018-09-03T23:41:37.828Z,21.35
2018-09-03T23:44:08.687Z,20.10
2018-09-03T23:46:39.585Z,20.43
2018-09-03T23:49:10.359Z,21.93
2018-09-03T23:51:41.141Z,19.50
2018-09-03T23:54:11.876Z,20.43
2018-09-03T23:56:42.625Z,21.97
2018-09-03T23:59:13.647Z,21.63
